sensor_id;sensor_type;location;lat;lon;timestamp;pressure;altitude;pressure_sealevel;temperature;humidity
65756;BME280;69208;47.502;18.940;2023-05-01T00:00:30;98397.62;;;10.24;68.12
65756;BME280;69208;47.502;18.940;2023-05-01T00:01:33;98401.25;;;10.47;66.29
65756;BME280;69208;47.502;18.940;2023-05-01T00:02:37;98394.16;;;10.47;66.02
65756;BME280;69208;47.502;18.940;2023-05-01T00:03:40;98395.72;;;10.48;65.60
65756;BME280;69208;47.502;18.940;2023-05-01T00:04:43;98396.44;;;10.35;66.23
65756;BME280;69208;47.502;18.940;2023-05-01T00:05:46;98396.03;;;10.23;67.65
65756;BME280;69208;47.502;18.940;2023-05-01T00:06:49;98396.78;;;10.29;66.94
65756;BME280;69208;47.502;18.940;2023-05-01T00:07:52;98395.38;;;10.36;66.66
65756;BME280;69208;47.502;18.940;2023-05-01T00:08:56;98382.75;;;10.19;67.30
65756;BME280;69208;47.502;18.940;2023-05-01T00:09:59;98388.47;;;10.21;67.27
65756;BME280;69208;47.502;18.940;2023-05-01T00:11:03;98386.13;;;10.20;68.36
65756;BME280;69208;47.502;18.940;2023-05-01T00:12:06;98386.13;;;10.20;68.46
65756;BME280;69208;47.502;18.940;2023-05-01T00:13:09;98383.38;;;10.11;68.95
65756;BME280;69208;47.502;18.940;2023-05-01T00:14:12;98387.97;;;10.19;68.94
65756;BME280;69208;47.502;18.940;2023-05-01T00:15:15;98391.78;;;10.08;69.07
65756;BME280;69208;47.502;18.940;2023-05-01T00:16:18;98381.41;;;10.03;69.62
65756;BME280;69208;47.502;18.940;2023-05-01T00:17:21;98390.97;;;9.94;70.10
65756;BME280;69208;47.502;18.940;2023-05-01T00:18:25;98385.94;;;9.97;69.90
65756;BME280;69208;47.502;18.940;2023-05-01T00:19:28;98383.16;;;9.89;70.08
65756;BME280;69208;47.502;18.940;2023-05-01T00:20:31;98387.31;;;9.90;69.65
65756;BME280;69208;47.502;18.940;2023-05-01T00:21:34;98392.34;;;9.86;70.34
65756;BME280;69208;47.502;18.940;2023-05-01T00:22:37;98387.16;;;9.81;70.65
65756;BME280;69208;47.502;18.940;2023-05-01T00:23:40;98393.69;;;9.84;70.44
65756;BME280;69208;47.502;18.940;2023-05-01T00:24:43;98387.09;;;9.67;71.58
65756;BME280;69208;47.502;18.940;2023-05-01T00:25:47;98385.87;;;9.60;70.71
65756;BME280;69208;47.502;18.940;2023-05-01T00:26:50;98388.34;;;9.70;71.15
65756;BME280;69208;47.502;18.940;2023-05-01T00:27:53;98381.56;;;9.69;70.88
65756;BME280;69208;47.502;18.940;2023-05-01T00:28:57;98385.50;;;9.66;70.99
65756;BME280;69208;47.502;18.940;2023-05-01T00:30:00;98385.31;;;9.63;71.39
65756;BME280;69208;47.502;18.940;2023-05-01T00:31:03;98391.19;;;9.49;71.64
65756;BME280;69208;47.502;18.940;2023-05-01T00:32:06;98382.75;;;9.57;70.73
65756;BME280;69208;47.502;18.940;2023-05-01T00:33:10;98383.47;;;9.63;70.60
65756;BME280;69208;47.502;18.940;2023-05-01T00:34:13;98386.44;;;9.75;69.38
65756;BME280;69208;47.502;18.940;2023-05-01T00:35:15;98384.41;;;9.72;69.56
65756;BME280;69208;47.502;18.940;2023-05-01T00:36:19;98389.84;;;9.76;69.95
65756;BME280;69208;47.502;18.940;2023-05-01T00:37:23;98383.28;;;9.78;70.17
65756;BME280;69208;47.502;18.940;2023-05-01T00:38:26;98386.59;;;9.65;69.99
65756;BME280;69208;47.502;18.940;2023-05-01T00:39:29;98384.13;;;9.74;69.89
65756;BME280;69208;47.502;18.940;2023-05-01T00:40:40;98391.13;;;9.78;69.82
65756;BME280;69208;47.502;18.940;2023-05-01T00:41:43;98391.22;;;9.73;70.15
65756;BME280;69208;47.502;18.940;2023-05-01T00:42:46;98387.31;;;9.90;69.44
65756;BME280;69208;47.502;18.940;2023-05-01T00:43:49;98385.28;;;9.87;69.64
65756;BME280;69208;47.502;18.940;2023-05-01T00:44:52;98385.16;;;9.97;69.23
65756;BME280;69208;47.502;18.940;2023-05-01T00:45:55;98392.84;;;9.88;69.49
65756;BME280;69208;47.502;18.940;2023-05-01T00:46:58;98390.81;;;9.85;70.02
65756;BME280;69208;47.502;18.940;2023-05-01T00:48:04;98389.00;;;9.80;70.19
65756;BME280;69208;47.502;18.940;2023-05-01T00:49:08;98392.75;;;9.74;70.90
65756;BME280;69208;47.502;18.940;2023-05-01T00:50:11;98388.50;;;9.78;70.07
65756;BME280;69208;47.502;18.940;2023-05-01T00:51:15;98393.53;;;9.75;69.95
65756;BME280;69208;47.502;18.940;2023-05-01T00:52:19;98389.00;;;9.80;69.96
65756;BME280;69208;47.502;18.940;2023-05-01T00:53:22;98393.81;;;9.73;70.15
65756;BME280;69208;47.502;18.940;2023-05-01T00:54:28;98392.25;;;9.72;70.72
65756;BME280;69208;47.502;18.940;2023-05-01T00:55:31;98400.37;;;9.71;71.63
65756;BME280;69208;47.502;18.940;2023-05-01T00:56:35;98395.38;;;9.74;71.48
65756;BME280;69208;47.502;18.940;2023-05-01T00:57:39;98396.19;;;9.70;71.98
65756;BME280;69208;47.502;18.940;2023-05-01T00:58:44;98395.81;;;9.57;72.21
65756;BME280;69208;47.502;18.940;2023-05-01T00:59:49;98395.34;;;9.55;72.44
65756;BME280;69208;47.502;18.940;2023-05-01T01:00:52;98392.94;;;9.59;72.35
65756;BME280;69208;47.502;18.940;2023-05-01T01:01:55;98395.25;;;9.61;72.49
65756;BME280;69208;47.502;18.940;2023-05-01T01:02:59;98394.31;;;9.51;72.88
65756;BME280;69208;47.502;18.940;2023-05-01T01:04:02;98388.88;;;9.48;73.04
65756;BME280;69208;47.502;18.940;2023-05-01T01:05:06;98387.94;;;9.39;73.04
65756;BME280;69208;47.502;18.940;2023-05-01T01:06:29;98398.81;;;9.22;73.53
65756;BME280;69208;47.502;18.940;2023-05-01T01:10:36;98399.38;;;9.19;73.76
65756;BME280;69208;47.502;18.940;2023-05-01T01:12:38;98400.91;;;9.20;73.59
65756;BME280;69208;47.502;18.940;2023-05-01T01:13:44;98396.69;;;9.00;73.65
65756;BME280;69208;47.502;18.940;2023-05-01T01:15:17;98399.91;;;9.16;73.82
65756;BME280;69208;47.502;18.940;2023-05-01T01:16:47;98393.56;;;8.98;73.87
65756;BME280;69208;47.502;18.940;2023-05-01T01:18:19;98390.34;;;9.06;74.40
65756;BME280;69208;47.502;18.940;2023-05-01T01:21:11;98392.75;;;9.02;74.74
65756;BME280;69208;47.502;18.940;2023-05-01T01:22:22;98393.47;;;8.79;74.50
65756;BME280;69208;47.502;18.940;2023-05-01T01:24:55;98396.72;;;8.60;75.34
65756;BME280;69208;47.502;18.940;2023-05-01T01:29:05;98387.34;;;8.59;75.72
65756;BME280;69208;47.502;18.940;2023-05-01T01:32:30;98388.34;;;8.63;75.71
65756;BME280;69208;47.502;18.940;2023-05-01T01:34:53;98388.16;;;8.55;75.74
65756;BME280;69208;47.502;18.940;2023-05-01T01:36:01;98381.19;;;8.40;76.87
65756;BME280;69208;47.502;18.940;2023-05-01T01:38:23;98383.19;;;8.53;76.29
65756;BME280;69208;47.502;18.940;2023-05-01T01:39:53;98371.94;;;8.58;75.76
65756;BME280;69208;47.502;18.940;2023-05-01T01:41:09;98379.28;;;8.56;75.21
65756;BME280;69208;47.502;18.940;2023-05-01T01:42:23;98375.16;;;8.45;75.79
65756;BME280;69208;47.502;18.940;2023-05-01T01:43:37;98382.78;;;8.41;75.96
65756;BME280;69208;47.502;18.940;2023-05-01T01:44:47;98380.34;;;8.50;75.70
65756;BME280;69208;47.502;18.940;2023-05-01T01:45:59;98382.25;;;8.34;76.68
65756;BME280;69208;47.502;18.940;2023-05-01T01:47:07;98381.47;;;8.33;76.75
65756;BME280;69208;47.502;18.940;2023-05-01T01:48:16;98383.63;;;8.26;76.98
65756;BME280;69208;47.502;18.940;2023-05-01T01:49:24;98385.72;;;8.24;77.16
65756;BME280;69208;47.502;18.940;2023-05-01T01:50:29;98377.91;;;8.19;77.40
65756;BME280;69208;47.502;18.940;2023-05-01T01:51:34;98378.44;;;8.16;77.81
65756;BME280;69208;47.502;18.940;2023-05-01T01:52:41;98376.34;;;8.18;77.20
65756;BME280;69208;47.502;18.940;2023-05-01T01:53:51;98385.25;;;8.17;77.98
65756;BME280;69208;47.502;18.940;2023-05-01T01:55:06;98379.94;;;8.27;77.54
65756;BME280;69208;47.502;18.940;2023-05-01T01:56:11;98385.94;;;8.28;77.40
65756;BME280;69208;47.502;18.940;2023-05-01T01:57:18;98381.25;;;8.30;77.26
65756;BME280;69208;47.502;18.940;2023-05-01T01:58:24;98382.31;;;8.29;77.62
65756;BME280;69208;47.502;18.940;2023-05-01T01:59:31;98383.84;;;8.30;77.80
65756;BME280;69208;47.502;18.940;2023-05-01T02:00:36;98381.78;;;8.27;77.92
65756;BME280;69208;47.502;18.940;2023-05-01T02:01:40;98378.63;;;8.30;78.33
65756;BME280;69208;47.502;18.940;2023-05-01T02:02:45;98381.47;;;8.33;78.49
65756;BME280;69208;47.502;18.940;2023-05-01T02:03:50;98380.72;;;8.28;78.51
65756;BME280;69208;47.502;18.940;2023-05-01T02:04:55;98378.37;;;8.31;78.16
65756;BME280;69208;47.502;18.940;2023-05-01T02:05:59;98383.53;;;8.36;78.02
65756;BME280;69208;47.502;18.940;2023-05-01T02:07:03;98379.38;;;8.40;78.34
65756;BME280;69208;47.502;18.940;2023-05-01T02:08:10;98376.50;;;8.42;77.86
65756;BME280;69208;47.502;18.940;2023-05-01T02:09:15;98374.97;;;8.31;78.58
65756;BME280;69208;47.502;18.940;2023-05-01T02:10:22;98380.16;;;8.41;77.86
65756;BME280;69208;47.502;18.940;2023-05-01T02:11:27;98379.63;;;8.44;78.56
65756;BME280;69208;47.502;18.940;2023-05-01T02:12:32;98381.16;;;8.45;78.55
65756;BME280;69208;47.502;18.940;2023-05-01T02:13:38;98376.22;;;8.78;76.77
65756;BME280;69208;47.502;18.940;2023-05-01T02:14:43;98381.19;;;8.79;77.03
65756;BME280;69208;47.502;18.940;2023-05-01T02:15:47;98377.47;;;8.85;76.29
65756;BME280;69208;47.502;18.940;2023-05-01T02:16:51;98373.53;;;8.88;75.59
65756;BME280;69208;47.502;18.940;2023-05-01T02:17:54;98376.31;;;8.97;75.99
65756;BME280;69208;47.502;18.940;2023-05-01T02:18:59;98376.72;;;9.09;74.65
65756;BME280;69208;47.502;18.940;2023-05-01T02:20:04;98382.94;;;9.13;74.35
65756;BME280;69208;47.502;18.940;2023-05-01T02:21:10;98372.59;;;9.32;73.71
65756;BME280;69208;47.502;18.940;2023-05-01T02:22:13;98376.56;;;9.24;74.50
65756;BME280;69208;47.502;18.940;2023-05-01T02:23:18;98378.91;;;9.26;74.01
65756;BME280;69208;47.502;18.940;2023-05-01T02:24:23;98372.34;;;9.28;74.06
65756;BME280;69208;47.502;18.940;2023-05-01T02:25:30;98376.87;;;9.47;72.35
65756;BME280;69208;47.502;18.940;2023-05-01T02:26:41;98368.38;;;9.55;71.23
65756;BME280;69208;47.502;18.940;2023-05-01T02:28:07;98368.16;;;9.51;71.65
65756;BME280;69208;47.502;18.940;2023-05-01T02:29:11;98365.00;;;9.54;72.16
65756;BME280;69208;47.502;18.940;2023-05-01T02:30:14;98367.91;;;9.53;72.38
65756;BME280;69208;47.502;18.940;2023-05-01T02:31:17;98374.78;;;9.68;71.57
65756;BME280;69208;47.502;18.940;2023-05-01T02:32:20;98373.72;;;9.69;71.77
65756;BME280;69208;47.502;18.940;2023-05-01T02:33:23;98375.78;;;9.72;71.53
65756;BME280;69208;47.502;18.940;2023-05-01T02:34:26;98377.63;;;9.71;72.31
65756;BME280;69208;47.502;18.940;2023-05-01T02:35:29;98369.22;;;9.74;71.40
65756;BME280;69208;47.502;18.940;2023-05-01T02:36:32;98372.19;;;9.87;69.29
65756;BME280;69208;47.502;18.940;2023-05-01T02:37:36;98368.81;;;10.05;68.67
65756;BME280;69208;47.502;18.940;2023-05-01T02:38:40;98373.25;;;10.05;68.66
65756;BME280;69208;47.502;18.940;2023-05-01T02:39:43;98372.75;;;10.02;67.94
65756;BME280;69208;47.502;18.940;2023-05-01T02:40:51;98372.69;;;10.08;68.44
65756;BME280;69208;47.502;18.940;2023-05-01T02:41:56;98367.75;;;10.06;68.38
65756;BME280;69208;47.502;18.940;2023-05-01T02:43:04;98376.75;;;10.00;68.92
65756;BME280;69208;47.502;18.940;2023-05-01T02:44:10;98369.09;;;10.03;67.53
65756;BME280;69208;47.502;18.940;2023-05-01T02:45:22;98370.13;;;10.02;67.84
65756;BME280;69208;47.502;18.940;2023-05-01T02:46:29;98369.06;;;10.28;66.49
65756;BME280;69208;47.502;18.940;2023-05-01T02:47:36;98372.47;;;10.23;66.29
65756;BME280;69208;47.502;18.940;2023-05-01T02:48:41;98371.50;;;10.19;67.01
65756;BME280;69208;47.502;18.940;2023-05-01T02:49:45;98367.25;;;10.23;67.22
65756;BME280;69208;47.502;18.940;2023-05-01T02:50:50;98369.75;;;10.33;66.77
65756;BME280;69208;47.502;18.940;2023-05-01T02:51:55;98373.66;;;10.36;65.86
65756;BME280;69208;47.502;18.940;2023-05-01T02:53:00;98372.38;;;10.33;66.20
65756;BME280;69208;47.502;18.940;2023-05-01T02:54:03;98372.31;;;10.38;65.84
65756;BME280;69208;47.502;18.940;2023-05-01T02:55:07;98374.12;;;10.38;65.60
65756;BME280;69208;47.502;18.940;2023-05-01T02:56:11;98375.25;;;10.32;66.05
65756;BME280;69208;47.502;18.940;2023-05-01T02:57:16;98364.59;;;10.47;65.38
65756;BME280;69208;47.502;18.940;2023-05-01T02:58:20;98369.47;;;10.35;66.71
65756;BME280;69208;47.502;18.940;2023-05-01T02:59:23;98372.66;;;10.32;66.63
65756;BME280;69208;47.502;18.940;2023-05-01T03:00:26;98375.91;;;10.42;64.74
65756;BME280;69208;47.502;18.940;2023-05-01T03:01:29;98378.72;;;10.46;64.59
65756;BME280;69208;47.502;18.940;2023-05-01T03:02:33;98371.94;;;10.45;64.58
65756;BME280;69208;47.502;18.940;2023-05-01T03:03:36;98375.59;;;10.44;64.14
65756;BME280;69208;47.502;18.940;2023-05-01T03:04:39;98371.50;;;10.38;65.15
65756;BME280;69208;47.502;18.940;2023-05-01T03:05:42;98376.53;;;10.34;65.60
65756;BME280;69208;47.502;18.940;2023-05-01T03:06:45;98372.06;;;10.54;64.02
65756;BME280;69208;47.502;18.940;2023-05-01T03:07:48;98376.16;;;10.41;65.04
65756;BME280;69208;47.502;18.940;2023-05-01T03:08:52;98376.09;;;10.46;64.09
65756;BME280;69208;47.502;18.940;2023-05-01T03:09:56;98373.47;;;10.46;64.05
65756;BME280;69208;47.502;18.940;2023-05-01T03:11:03;98382.03;;;10.52;63.85
65756;BME280;69208;47.502;18.940;2023-05-01T03:12:06;98378.44;;;10.47;63.69
65756;BME280;69208;47.502;18.940;2023-05-01T03:13:10;98373.53;;;10.60;63.11
65756;BME280;69208;47.502;18.940;2023-05-01T03:14:13;98387.16;;;10.43;62.78
65756;BME280;69208;47.502;18.940;2023-05-01T03:15:16;98378.13;;;10.35;63.85
65756;BME280;69208;47.502;18.940;2023-05-01T03:16:21;98381.50;;;10.36;65.24
65756;BME280;69208;47.502;18.940;2023-05-01T03:17:25;98380.16;;;10.38;64.56
65756;BME280;69208;47.502;18.940;2023-05-01T03:18:28;98386.66;;;10.41;64.03
65756;BME280;69208;47.502;18.940;2023-05-01T03:19:31;98391.13;;;10.40;62.93
65756;BME280;69208;47.502;18.940;2023-05-01T03:20:35;98388.59;;;10.35;64.38
65756;BME280;69208;47.502;18.940;2023-05-01T03:21:38;98385.41;;;10.38;64.28
65756;BME280;69208;47.502;18.940;2023-05-01T03:22:41;98381.97;;;10.38;63.04
65756;BME280;69208;47.502;18.940;2023-05-01T03:23:44;98389.84;;;10.38;63.64
65756;BME280;69208;47.502;18.940;2023-05-01T03:24:48;98391.28;;;10.30;63.56
65756;BME280;69208;47.502;18.940;2023-05-01T03:25:52;98391.28;;;10.30;63.41
65756;BME280;69208;47.502;18.940;2023-05-01T03:26:56;98385.84;;;10.27;63.84
65756;BME280;69208;47.502;18.940;2023-05-01T03:27:59;98388.94;;;10.29;64.18
65756;BME280;69208;47.502;18.940;2023-05-01T03:29:02;98392.03;;;10.31;64.53
65756;BME280;69208;47.502;18.940;2023-05-01T03:30:06;98393.31;;;10.33;65.38
65756;BME280;69208;47.502;18.940;2023-05-01T03:31:10;98399.06;;;10.35;65.30
65756;BME280;69208;47.502;18.940;2023-05-01T03:32:13;98395.38;;;10.36;64.49
65756;BME280;69208;47.502;18.940;2023-05-01T03:33:18;98398.97;;;10.40;64.16
65756;BME280;69208;47.502;18.940;2023-05-01T03:34:21;98399.97;;;10.44;63.51
65756;BME280;69208;47.502;18.940;2023-05-01T03:35:24;98395.06;;;10.38;62.24
65756;BME280;69208;47.502;18.940;2023-05-01T03:36:27;98392.25;;;10.34;62.37
65756;BME280;69208;47.502;18.940;2023-05-01T03:37:30;98399.84;;;10.36;63.11
65756;BME280;69208;47.502;18.940;2023-05-01T03:38:35;98393.66;;;10.45;62.27
65756;BME280;69208;47.502;18.940;2023-05-01T03:39:38;98394.81;;;10.39;63.01
65756;BME280;69208;47.502;18.940;2023-05-01T03:40:41;98391.47;;;10.34;63.17
65756;BME280;69208;47.502;18.940;2023-05-01T03:41:44;98389.25;;;10.41;62.70
65756;BME280;69208;47.502;18.940;2023-05-01T03:42:47;98388.44;;;10.45;62.28
65756;BME280;69208;47.502;18.940;2023-05-01T03:43:51;98389.91;;;10.52;62.33
65756;BME280;69208;47.502;18.940;2023-05-01T03:44:54;98386.88;;;10.44;62.98
65756;BME280;69208;47.502;18.940;2023-05-01T03:45:57;98385.31;;;10.43;62.32
65756;BME280;69208;47.502;18.940;2023-05-01T03:47:00;98385.75;;;10.51;61.99
65756;BME280;69208;47.502;18.940;2023-05-01T03:48:03;98387.34;;;10.46;61.23
65756;BME280;69208;47.502;18.940;2023-05-01T03:49:06;98388.03;;;10.38;62.12
65756;BME280;69208;47.502;18.940;2023-05-01T03:50:09;98382.12;;;10.46;61.86
65756;BME280;69208;47.502;18.940;2023-05-01T03:51:12;98386.06;;;10.44;61.42
65756;BME280;69208;47.502;18.940;2023-05-01T03:52:19;98384.53;;;10.43;61.34
65756;BME280;69208;47.502;18.940;2023-05-01T03:53:21;98384.59;;;10.38;62.13
65756;BME280;69208;47.502;18.940;2023-05-01T03:54:25;98385.41;;;10.38;61.94
65756;BME280;69208;47.502;18.940;2023-05-01T03:55:27;98379.59;;;10.41;61.18
65756;BME280;69208;47.502;18.940;2023-05-01T03:56:30;98381.50;;;10.36;61.85
65756;BME280;69208;47.502;18.940;2023-05-01T03:57:37;98384.47;;;10.29;61.41
65756;BME280;69208;47.502;18.940;2023-05-01T03:58:40;98380.22;;;10.33;60.96
65756;BME280;69208;47.502;18.940;2023-05-01T03:59:43;98389.50;;;10.44;60.38
65756;BME280;69208;47.502;18.940;2023-05-01T04:00:45;98383.91;;;10.51;60.36
65756;BME280;69208;47.502;18.940;2023-05-01T04:01:48;98388.56;;;10.54;60.29
65756;BME280;69208;47.502;18.940;2023-05-01T04:02:51;98384.97;;;10.50;60.24
65756;BME280;69208;47.502;18.940;2023-05-01T04:03:55;98389.78;;;10.43;61.45
65756;BME280;69208;47.502;18.940;2023-05-01T04:04:58;98390.09;;;10.55;61.71
65756;BME280;69208;47.502;18.940;2023-05-01T04:06:01;98392.81;;;10.50;62.27
65756;BME280;69208;47.502;18.940;2023-05-01T04:07:04;98389.91;;;10.52;61.79
65756;BME280;69208;47.502;18.940;2023-05-01T04:08:07;98393.72;;;10.40;62.39
65756;BME280;69208;47.502;18.940;2023-05-01T04:09:10;98392.87;;;10.45;62.73
65756;BME280;69208;47.502;18.940;2023-05-01T04:10:13;98388.28;;;10.37;62.51
65756;BME280;69208;47.502;18.940;2023-05-01T04:11:16;98397.69;;;10.38;62.17
65756;BME280;69208;47.502;18.940;2023-05-01T04:12:19;98396.78;;;10.47;61.50
65756;BME280;69208;47.502;18.940;2023-05-01T04:13:22;98394.88;;;10.34;62.51
65756;BME280;69208;47.502;18.940;2023-05-01T04:14:25;98394.22;;;10.42;63.06
65756;BME280;69208;47.502;18.940;2023-05-01T04:15:28;98386.50;;;10.32;62.78
65756;BME280;69208;47.502;18.940;2023-05-01T04:16:31;98390.91;;;10.37;62.55
65756;BME280;69208;47.502;18.940;2023-05-01T04:17:35;98390.19;;;10.31;62.53
65756;BME280;69208;47.502;18.940;2023-05-01T04:18:38;98390.13;;;10.36;62.38
65756;BME280;69208;47.502;18.940;2023-05-01T04:19:41;98389.06;;;10.37;63.27
65756;BME280;69208;47.502;18.940;2023-05-01T04:20:44;98388.66;;;10.30;63.57
65756;BME280;69208;47.502;18.940;2023-05-01T04:21:48;98396.44;;;10.35;63.32
65756;BME280;69208;47.502;18.940;2023-05-01T04:22:51;98403.28;;;10.31;64.21
65756;BME280;69208;47.502;18.940;2023-05-01T04:23:54;98390.22;;;10.26;63.41
65756;BME280;69208;47.502;18.940;2023-05-01T04:24:56;98394.59;;;10.36;64.04
65756;BME280;69208;47.502;18.940;2023-05-01T04:25:59;98399.13;;;10.30;63.96
65756;BME280;69208;47.502;18.940;2023-05-01T04:27:02;98396.50;;;10.30;63.69
65756;BME280;69208;47.502;18.940;2023-05-01T04:28:06;98399.09;;;10.49;63.58
65756;BME280;69208;47.502;18.940;2023-05-01T04:29:09;98402.16;;;10.37;63.64
65756;BME280;69208;47.502;18.940;2023-05-01T04:30:12;98400.75;;;10.45;62.68
65756;BME280;69208;47.502;18.940;2023-05-01T04:31:15;98402.50;;;10.50;62.27
65756;BME280;69208;47.502;18.940;2023-05-01T04:32:18;98397.50;;;10.34;63.31
65756;BME280;69208;47.502;18.940;2023-05-01T04:33:21;98399.34;;;10.34;64.80
65756;BME280;69208;47.502;18.940;2023-05-01T04:34:24;98396.97;;;10.32;64.46
65756;BME280;69208;47.502;18.940;2023-05-01T04:35:30;98396.97;;;10.32;63.11
65756;BME280;69208;47.502;18.940;2023-05-01T04:36:33;98400.81;;;10.40;63.63
65756;BME280;69208;47.502;18.940;2023-05-01T04:37:36;98402.09;;;10.42;63.22
65756;BME280;69208;47.502;18.940;2023-05-01T04:38:39;98400.53;;;10.41;62.99
65756;BME280;69208;47.502;18.940;2023-05-01T04:39:43;98395.44;;;10.31;63.40
65756;BME280;69208;47.502;18.940;2023-05-01T04:40:46;98401.03;;;10.43;63.13
65756;BME280;69208;47.502;18.940;2023-05-01T04:41:49;98410.78;;;10.38;63.95
65756;BME280;69208;47.502;18.940;2023-05-01T04:42:52;98402.59;;;10.44;63.51
65756;BME280;69208;47.502;18.940;2023-05-01T04:43:55;98401.72;;;10.49;64.28
65756;BME280;69208;47.502;18.940;2023-05-01T04:44:58;98415.69;;;10.44;64.59
65756;BME280;69208;47.502;18.940;2023-05-01T04:46:04;98403.16;;;10.41;65.32
65756;BME280;69208;47.502;18.940;2023-05-01T04:47:07;98405.06;;;10.36;65.80
65756;BME280;69208;47.502;18.940;2023-05-01T04:48:10;98401.94;;;10.34;66.12
65756;BME280;69208;47.502;18.940;2023-05-01T04:49:13;98406.41;;;10.33;66.65
65756;BME280;69208;47.502;18.940;2023-05-01T04:50:16;98408.94;;;10.57;66.19
65756;BME280;69208;47.502;18.940;2023-05-01T04:51:19;98408.66;;;10.59;65.36
65756;BME280;69208;47.502;18.940;2023-05-01T04:52:23;98412.78;;;10.46;66.31
65756;BME280;69208;47.502;18.940;2023-05-01T04:53:25;98412.00;;;10.45;66.44
65756;BME280;69208;47.502;18.940;2023-05-01T04:54:28;98413.63;;;10.41;66.03
65756;BME280;69208;47.502;18.940;2023-05-01T04:55:31;98413.97;;;10.54;64.83
65756;BME280;69208;47.502;18.940;2023-05-01T04:56:34;98412.72;;;10.51;65.02
65756;BME280;69208;47.502;18.940;2023-05-01T04:57:37;98411.06;;;10.55;64.71
65756;BME280;69208;47.502;18.940;2023-05-01T04:58:40;98409.66;;;10.63;65.14
65756;BME280;69208;47.502;18.940;2023-05-01T04:59:43;98410.72;;;10.62;65.95
65756;BME280;69208;47.502;18.940;2023-05-01T05:00:47;98408.87;;;10.62;66.28
65756;BME280;69208;47.502;18.940;2023-05-01T05:01:49;98411.69;;;10.66;65.92
65756;BME280;69208;47.502;18.940;2023-05-01T05:02:52;98415.16;;;10.80;66.72
65756;BME280;69208;47.502;18.940;2023-05-01T05:03:56;98411.62;;;10.71;67.32
65756;BME280;69208;47.502;18.940;2023-05-01T05:04:59;98415.03;;;10.85;67.04
65756;BME280;69208;47.502;18.940;2023-05-01T05:06:02;98416.50;;;10.78;68.17
65756;BME280;69208;47.502;18.940;2023-05-01T05:07:05;98421.34;;;10.84;67.77
65756;BME280;69208;47.502;18.940;2023-05-01T05:08:10;98413.50;;;10.84;68.31
65756;BME280;69208;47.502;18.940;2023-05-01T05:09:14;98423.78;;;10.81;69.32
65756;BME280;69208;47.502;18.940;2023-05-01T05:10:20;98424.06;;;10.79;69.78
65756;BME280;69208;47.502;18.940;2023-05-01T05:11:23;98422.38;;;10.88;69.52
65756;BME280;69208;47.502;18.940;2023-05-01T05:12:26;98426.56;;;11.03;68.08
65756;BME280;69208;47.502;18.940;2023-05-01T05:13:29;98420.34;;;10.99;68.27
65756;BME280;69208;47.502;18.940;2023-05-01T05:14:32;98419.72;;;11.21;68.05
65756;BME280;69208;47.502;18.940;2023-05-01T05:15:35;98416.50;;;11.24;68.03
65756;BME280;69208;47.502;18.940;2023-05-01T05:16:38;98419.25;;;11.33;67.58
65756;BME280;69208;47.502;18.940;2023-05-01T05:17:41;98417.09;;;11.21;68.19
65756;BME280;69208;47.502;18.940;2023-05-01T05:18:44;98420.28;;;11.18;69.21
65756;BME280;69208;47.502;18.940;2023-05-01T05:19:47;98424.38;;;11.24;68.14
65756;BME280;69208;47.502;18.940;2023-05-01T05:20:50;98414.16;;;11.23;68.41
65756;BME280;69208;47.502;18.940;2023-05-01T05:21:54;98415.50;;;11.20;70.02
65756;BME280;69208;47.502;18.940;2023-05-01T05:22:57;98410.38;;;11.29;70.29
65756;BME280;69208;47.502;18.940;2023-05-01T05:23:59;98413.78;;;11.29;69.73
65756;BME280;69208;47.502;18.940;2023-05-01T05:25:03;98415.31;;;11.16;69.36
65756;BME280;69208;47.502;18.940;2023-05-01T05:26:08;98417.94;;;11.16;69.69
65756;BME280;69208;47.502;18.940;2023-05-01T05:27:11;98421.75;;;11.24;69.21
65756;BME280;69208;47.502;18.940;2023-05-01T05:28:14;98420.50;;;11.35;68.91
65756;BME280;69208;47.502;18.940;2023-05-01T05:29:17;98419.53;;;11.45;68.93
65756;BME280;69208;47.502;18.940;2023-05-01T05:30:20;98422.44;;;11.44;67.23
65756;BME280;69208;47.502;18.940;2023-05-01T05:31:23;98417.41;;;11.61;66.29
65756;BME280;69208;47.502;18.940;2023-05-01T05:32:26;98412.81;;;11.53;66.46
65756;BME280;69208;47.502;18.940;2023-05-01T05:33:30;98422.84;;;11.65;66.69
65756;BME280;69208;47.502;18.940;2023-05-01T05:34:33;98423.41;;;11.61;65.73
65756;BME280;69208;47.502;18.940;2023-05-01T05:35:35;98413.69;;;11.62;66.04
65756;BME280;69208;47.502;18.940;2023-05-01T05:36:38;98420.03;;;11.61;66.11
65756;BME280;69208;47.502;18.940;2023-05-01T05:37:41;98418.56;;;11.55;65.59
65756;BME280;69208;47.502;18.940;2023-05-01T05:38:47;98422.75;;;11.70;65.11
65756;BME280;69208;47.502;18.940;2023-05-01T05:39:51;98424.69;;;11.78;64.90
65756;BME280;69208;47.502;18.940;2023-05-01T05:40:54;98417.09;;;11.76;65.26
65756;BME280;69208;47.502;18.940;2023-05-01T05:41:57;98421.00;;;11.79;64.54
65756;BME280;69208;47.502;18.940;2023-05-01T05:43:00;98429.63;;;11.79;62.24
65756;BME280;69208;47.502;18.940;2023-05-01T05:44:03;98418.66;;;11.50;61.82
65756;BME280;69208;47.502;18.940;2023-05-01T05:45:06;98429.47;;;11.48;63.58
65756;BME280;69208;47.502;18.940;2023-05-01T05:46:09;98427.53;;;11.54;63.37
65756;BME280;69208;47.502;18.940;2023-05-01T05:47:13;98421.66;;;11.43;63.52
65756;BME280;69208;47.502;18.940;2023-05-01T05:48:16;98419.53;;;11.59;63.42
65756;BME280;69208;47.502;18.940;2023-05-01T05:49:19;98415.25;;;11.77;62.84
65756;BME280;69208;47.502;18.940;2023-05-01T05:50:22;98431.13;;;11.99;61.28
65756;BME280;69208;47.502;18.940;2023-05-01T05:51:25;98423.72;;;12.01;57.48
65756;BME280;69208;47.502;18.940;2023-05-01T05:52:28;98427.41;;;12.00;56.60
65756;BME280;69208;47.502;18.940;2023-05-01T05:53:31;98420.59;;;11.99;54.38